createdAt,value
2017-01-02T00:01:05.642Z,10.6
2017-01-02T00:02:16.584Z,10.56
2017-01-02T00:03:27.909Z,10.48
2017-01-02T00:04:38.794Z,10.55
2017-01-02T00:05:50.111Z,10.59
2017-01-02T00:07:01.433Z,10.51
2017-01-02T00:08:12.374Z,10.48
2017-01-02T00:09:23.702Z,10.59
2017-01-02T00:10:34.592Z,10.52
2017-01-02T00:11:45.909Z,10.55
2017-01-02T00:12:56.374Z,10.56
2017-01-02T00:14:07.743Z,10.6
2017-01-02T00:15:18.636Z,10.59
2017-01-02T00:16:29.530Z,10.61
2017-01-02T00:17:40.851Z,10.51
2017-01-02T00:18:51.740Z,10.52
2017-01-02T00:20:02.261Z,10.52
2017-01-02T00:21:13.582Z,10.52
2017-01-02T00:22:24.915Z,10.61
2017-01-02T00:23:35.806Z,10.48
2017-01-02T00:24:47.125Z,10.56
2017-01-02T00:25:58.067Z,10.59
2017-01-02T00:27:08.956Z,10.53
2017-01-02T00:28:20.277Z,10.56
2017-01-02T00:29:30.755Z,10.53
2017-01-02T00:30:42.071Z,10.59
2017-01-02T00:31:53.016Z,10.45
2017-01-02T00:33:04.330Z,10.52
2017-01-02T00:34:15.651Z,10.44
2017-01-02T00:35:26.968Z,10.52
2017-01-02T00:36:38.293Z,10.6
2017-01-02T00:37:49.238Z,10.53
2017-01-02T00:39:00.163Z,10.56
2017-01-02T00:40:11.061Z,10.51
2017-01-02T00:41:22.378Z,10.51
2017-01-02T00:42:33.275Z,10.52
2017-01-02T00:43:44.220Z,10.52
2017-01-02T00:44:55.141Z,10.51
2017-01-02T00:46:06.467Z,10.47
2017-01-02T00:47:17.369Z,10.55
2017-01-02T00:48:28.266Z,10.51
2017-01-02T00:49:39.642Z,10.52
2017-01-02T00:50:50.527Z,10.47
2017-01-02T00:52:01.424Z,10.55
2017-01-02T00:53:12.750Z,10.52
2017-01-02T00:54:23.647Z,10.55
2017-01-02T00:55:34.588Z,10.55
2017-01-02T00:56:45.905Z,10.56
2017-01-02T00:57:56.802Z,10.59
2017-01-02T00:59:07.731Z,10.41
2017-01-02T01:00:18.628Z,10.51
2017-01-02T01:01:29.989Z,10.53
2017-01-02T01:02:40.883Z,10.52
2017-01-02T01:03:51.780Z,10.48
2017-01-02T01:05:03.105Z,10.51
2017-01-02T01:06:13.578Z,10.48
2017-01-02T01:07:24.523Z,10.56
2017-01-02T01:08:35.416Z,10.53
2017-01-02T01:09:46.318Z,10.55
2017-01-02T01:10:57.642Z,10.52
2017-01-02T01:12:08.548Z,10.61
2017-01-02T01:13:19.937Z,10.44
2017-01-02T01:14:30.838Z,10.56
2017-01-02T01:15:42.163Z,10.51
2017-01-02T01:16:53.484Z,10.51
2017-01-02T01:18:04.798Z,10.51
2017-01-02T01:19:16.199Z,10.47
2017-01-02T01:20:27.524Z,10.44
2017-01-02T01:21:38.845Z,10.55
2017-01-02T01:22:49.746Z,10.45
2017-01-02T01:24:00.635Z,10.52
2017-01-02T01:25:12.005Z,10.47
2017-01-02T01:26:22.897Z,10.51
2017-01-02T01:27:33.787Z,10.59
2017-01-02T01:28:44.680Z,10.44
2017-01-02T01:29:56.013Z,10.44
2017-01-02T01:31:07.427Z,10.56
2017-01-02T01:32:18.323Z,10.45
2017-01-02T01:33:29.649Z,10.56
2017-01-02T01:34:40.546Z,10.47
2017-01-02T01:35:51.439Z,10.53
2017-01-02T01:37:02.416Z,10.48
2017-01-02T01:38:13.317Z,10.56
2017-01-02T01:39:24.630Z,10.42
2017-01-02T01:40:35.524Z,10.55
2017-01-02T01:41:46.845Z,10.48
2017-01-02T01:42:57.782Z,10.44
2017-01-02T01:44:07.832Z,10.45
2017-01-02T01:45:18.724Z,10.56
2017-01-02T01:46:30.054Z,10.47
2017-01-02T01:47:40.951Z,10.51
2017-01-02T01:48:52.326Z,10.55
2017-01-02T01:50:03.217Z,10.51
2017-01-02T01:51:14.546Z,10.45
2017-01-02T01:52:25.448Z,10.45
2017-01-02T01:53:36.337Z,10.52
2017-01-02T01:54:47.730Z,10.52
2017-01-02T01:55:59.047Z,10.51
2017-01-02T01:57:09.940Z,10.47
2017-01-02T01:58:20.834Z,10.4
2017-01-02T01:59:31.739Z,10.45
2017-01-02T02:00:42.780Z,10.55
2017-01-02T02:01:53.697Z,10.45
2017-01-02T02:03:05.022Z,10.51
2017-01-02T02:04:15.912Z,10.48
2017-01-02T02:05:26.805Z,10.53
2017-01-02T02:06:38.178Z,10.51
2017-01-02T02:07:49.063Z,10.51
2017-01-02T02:08:59.948Z,10.55
2017-01-02T02:10:11.270Z,10.47
2017-01-02T02:11:22.591Z,10.45
2017-01-02T02:12:33.540Z,10.44
2017-01-02T02:13:44.857Z,10.53
2017-01-02T02:14:56.179Z,10.53
2017-01-02T02:16:07.072Z,10.45
2017-01-02T02:17:17.997Z,10.47
2017-01-02T02:18:29.362Z,10.56
2017-01-02T02:19:40.259Z,10.52
2017-01-02T02:20:50.720Z,10.4
2017-01-02T02:22:02.046Z,10.48
2017-01-02T02:23:12.935Z,10.47
2017-01-02T02:24:23.900Z,10.45
2017-01-02T02:25:34.793Z,10.45
2017-01-02T02:26:46.114Z,10.56
2017-01-02T02:27:57.008Z,10.59
2017-01-02T02:29:08.321Z,10.53
2017-01-02T02:30:19.702Z,10.6
2017-01-02T02:31:30.595Z,10.44
2017-01-02T02:32:41.916Z,10.51
2017-01-02T02:33:52.818Z,10.4
2017-01-02T02:35:03.718Z,10.41
2017-01-02T02:36:14.652Z,10.45
2017-01-02T02:37:25.545Z,10.47
2017-01-02T02:38:36.859Z,10.41
2017-01-02T02:39:47.748Z,10.55
2017-01-02T02:40:58.673Z,10.41
2017-01-02T02:42:10.059Z,10.51
2017-01-02T02:43:20.955Z,10.45
2017-01-02T02:44:31.852Z,10.4
2017-01-02T02:45:42.741Z,10.51
2017-01-02T02:46:54.063Z,10.4
2017-01-02T02:48:05.004Z,10.56
2017-01-02T02:49:15.925Z,10.51
2017-01-02T02:50:27.238Z,10.44
2017-01-02T02:51:38.591Z,10.6
2017-01-02T02:52:49.912Z,10.51
2017-01-02T02:54:01.497Z,10.53
2017-01-02T02:55:12.396Z,10.45
2017-01-02T02:56:23.285Z,10.51
2017-01-02T02:57:34.178Z,10.45
2017-01-02T02:58:45.507Z,10.45
2017-01-02T02:59:56.888Z,10.56
2017-01-02T03:01:08.217Z,10.56
2017-01-02T03:02:19.115Z,10.41
2017-01-02T03:03:30.432Z,10.51
2017-01-02T03:04:41.320Z,10.52
2017-01-02T03:05:52.702Z,10.55
2017-01-02T03:07:04.031Z,10.38
2017-01-02T03:08:15.360Z,10.41
2017-01-02T03:09:26.257Z,10.44
2017-01-02T03:10:37.147Z,10.56
2017-01-02T03:11:48.087Z,10.4
2017-01-02T03:12:59.409Z,10.44
2017-01-02T03:14:10.308Z,10.4
2017-01-02T03:15:21.624Z,10.45
2017-01-02T03:16:32.949Z,10.41
2017-01-02T03:17:43.882Z,10.51
2017-01-02T03:18:54.779Z,10.45
2017-01-02T03:20:06.100Z,10.55
2017-01-02T03:21:17.417Z,10.53
2017-01-02T03:22:28.299Z,10.45
2017-01-02T03:23:39.248Z,10.53
2017-01-02T03:24:50.577Z,10.47
2017-01-02T03:26:01.894Z,10.53
2017-01-02T03:27:12.783Z,10.51
2017-01-02T03:28:24.105Z,10.48
2017-01-02T03:29:35.470Z,10.47
2017-01-02T03:30:46.815Z,10.48
2017-01-02T03:31:58.136Z,10.48
2017-01-02T03:33:09.453Z,10.52
2017-01-02T03:34:20.346Z,10.51
2017-01-02T03:35:31.708Z,10.53
2017-01-02T03:36:43.037Z,10.53
2017-01-02T03:37:54.350Z,10.42
2017-01-02T03:39:05.248Z,10.48
2017-01-02T03:40:15.716Z,10.55
2017-01-02T03:41:27.090Z,10.4
2017-01-02T03:42:37.987Z,10.44
2017-01-02T03:43:48.880Z,10.44
2017-01-02T03:45:00.197Z,10.45
2017-01-02T03:46:10.658Z,10.44
2017-01-02T03:47:21.631Z,10.47
2017-01-02T03:48:32.956Z,10.51
2017-01-02T03:49:44.283Z,10.52
2017-01-02T03:50:55.595Z,10.47
2017-01-02T03:52:06.492Z,10.47
2017-01-02T03:53:17.533Z,10.42
2017-01-02T03:54:27.990Z,10.44
2017-01-02T03:55:38.891Z,10.36
2017-01-02T03:56:49.789Z,10.47
2017-01-02T03:58:01.111Z,10.47
2017-01-02T03:59:12.067Z,10.45
2017-01-02T04:00:22.969Z,10.56
2017-01-02T04:01:34.293Z,10.48
2017-01-02T04:02:45.606Z,10.42
2017-01-02T04:03:56.499Z,10.4
2017-01-02T04:05:07.876Z,10.55
2017-01-02T04:06:19.195Z,10.51
2017-01-02T04:07:30.551Z,10.44
2017-01-02T04:08:41.868Z,10.48
2017-01-02T04:09:53.189Z,10.52
2017-01-02T04:11:04.134Z,10.48
2017-01-02T04:12:15.035Z,10.45
2017-01-02T04:13:26.352Z,10.41
2017-01-02T04:14:37.242Z,10.36
2017-01-02T04:15:48.570Z,10.4
2017-01-02T04:16:59.940Z,10.4
2017-01-02T04:18:11.265Z,10.42
2017-01-02T04:19:22.162Z,10.4
2017-01-02T04:20:33.479Z,10.47
2017-01-02T04:21:44.800Z,10.47
2017-01-02T04:22:56.190Z,10.48
2017-01-02T04:24:07.083Z,10.51
2017-01-02T04:25:18.008Z,10.51
2017-01-02T04:26:29.329Z,10.4
2017-01-02T04:27:40.222Z,10.44
2017-01-02T04:28:51.596Z,10.47
2017-01-02T04:30:02.905Z,10.51
2017-01-02T04:31:13.803Z,10.41
2017-01-02T04:32:25.119Z,10.47
2017-01-02T04:33:36.016Z,10.52
2017-01-02T04:34:47.393Z,10.41
2017-01-02T04:35:58.286Z,10.52
2017-01-02T04:37:09.180Z,10.48
2017-01-02T04:38:20.503Z,10.52
2017-01-02T04:39:31.832Z,10.4
2017-01-02T04:40:42.775Z,10.48
2017-01-02T04:41:54.120Z,10.51
2017-01-02T04:43:05.449Z,10.51
2017-01-02T04:44:16.775Z,10.42
2017-01-02T04:45:27.660Z,10.52
2017-01-02T04:46:39.030Z,10.41
2017-01-02T04:47:50.351Z,10.44
2017-01-02T04:49:01.247Z,10.47
2017-01-02T04:50:12.561Z,10.51
2017-01-02T04:51:23.877Z,10.47
2017-01-02T04:52:35.243Z,10.45
2017-01-02T04:53:46.144Z,10.47
2017-01-02T04:54:57.033Z,10.4
2017-01-02T04:56:08.346Z,10.45
2017-01-02T04:57:19.699Z,10.55
2017-01-02T04:58:30.636Z,10.38
2017-01-02T04:59:41.961Z,10.6
2017-01-02T05:00:53.286Z,10.47
2017-01-02T05:02:04.175Z,10.55
2017-01-02T05:03:15.505Z,10.51
2017-01-02T05:04:26.866Z,10.38
2017-01-02T05:05:37.763Z,10.53
2017-01-02T05:06:49.076Z,10.47
2017-01-02T05:08:00.406Z,10.51
2017-01-02T05:09:10.871Z,10.48
2017-01-02T05:10:21.807Z,10.48
2017-01-02T05:11:33.129Z,10.48
2017-01-02T05:12:44.438Z,10.47
2017-01-02T05:13:54.903Z,10.42
2017-01-02T05:15:05.792Z,10.45
2017-01-02T05:16:17.165Z,10.6
2017-01-02T05:17:28.484Z,10.51
2017-01-02T05:18:39.377Z,10.52
2017-01-02T05:19:50.729Z,10.45
2017-01-02T05:21:01.630Z,10.47
2017-01-02T05:22:12.675Z,10.47
2017-01-02T05:23:23.992Z,10.36
2017-01-02T05:24:35.313Z,10.36
2017-01-02T05:25:46.647Z,10.48
2017-01-02T05:26:57.968Z,10.4
2017-01-02T05:28:08.913Z,10.48
2017-01-02T05:29:19.806Z,10.47
2017-01-02T05:30:31.128Z,10.55
2017-01-02T05:31:42.449Z,10.47
2017-01-02T05:32:53.770Z,10.45
2017-01-02T05:34:04.711Z,10.51
2017-01-02T05:35:16.036Z,10.51
2017-01-02T05:36:26.933Z,10.48
2017-01-02T05:37:38.255Z,10.45
2017-01-02T05:38:49.144Z,10.44
2017-01-02T05:40:00.093Z,10.45
2017-01-02T05:41:11.418Z,10.45
2017-01-02T05:42:22.735Z,10.52
2017-01-02T05:43:33.632Z,10.38
2017-01-02T05:44:44.957Z,10.56
2017-01-02T05:45:56.331Z,10.48
2017-01-02T05:47:07.644Z,10.47
2017-01-02T05:48:18.965Z,10.48
2017-01-02T05:49:30.286Z,10.52
2017-01-02T05:50:41.176Z,10.48
2017-01-02T05:51:52.552Z,10.42
2017-01-02T05:53:03.442Z,10.47
2017-01-02T05:54:14.763Z,10.59
2017-01-02T05:55:25.692Z,10.53
2017-01-02T05:56:36.149Z,10.47
2017-01-02T05:57:47.094Z,10.52
2017-01-02T05:58:57.983Z,10.51
2017-01-02T06:00:08.881Z,10.47
2017-01-02T06:01:20.198Z,10.52
2017-01-02T06:02:30.659Z,10.45
2017-01-02T06:03:42.040Z,10.42
2017-01-02T06:04:53.361Z,10.48
2017-01-02T06:06:04.692Z,10.56
2017-01-02T06:07:16.011Z,10.4
2017-01-02T06:08:27.349Z,10.51
2017-01-02T06:09:38.722Z,10.48
2017-01-02T06:10:50.043Z,10.48
2017-01-02T06:12:00.938Z,10.51
2017-01-02T06:13:11.401Z,10.51
2017-01-02T06:14:22.719Z,10.42
2017-01-02T06:15:33.665Z,10.45
2017-01-02T06:16:44.557Z,10.48
2017-01-02T06:17:55.882Z,10.47
2017-01-02T06:19:07.199Z,10.4
2017-01-02T06:20:18.517Z,10.47
2017-01-02T06:21:29.454Z,10.47
2017-01-02T06:22:40.347Z,10.53
2017-01-02T06:23:51.668Z,10.45
2017-01-02T06:25:02.981Z,10.4
2017-01-02T06:26:14.299Z,10.38
2017-01-02T06:27:25.246Z,10.45
2017-01-02T06:28:36.565Z,10.56
2017-01-02T06:29:47.462Z,10.45
2017-01-02T06:30:58.775Z,10.45
2017-01-02T06:32:10.092Z,10.34
2017-01-02T06:33:21.026Z,10.53
2017-01-02T06:34:32.351Z,10.47
2017-01-02T06:35:43.244Z,10.45
2017-01-02T06:36:54.562Z,10.48
2017-01-02T06:38:05.882Z,10.4
2017-01-02T06:39:16.827Z,10.34
2017-01-02T06:40:28.148Z,10.36
2017-01-02T06:41:39.466Z,10.42
2017-01-02T06:42:50.359Z,10.47
2017-01-02T06:44:01.676Z,10.44
2017-01-02T06:45:12.617Z,10.55
2017-01-02T06:46:23.938Z,10.4
2017-01-02T06:47:35.256Z,10.4
2017-01-02T06:48:46.153Z,10.41
2017-01-02T06:49:57.074Z,10.42
2017-01-02T06:51:08.439Z,10.47
2017-01-02T06:52:19.760Z,10.45
2017-01-02T06:53:31.086Z,10.45
2017-01-02T06:54:42.399Z,10.44
2017-01-02T06:55:53.736Z,10.48
2017-01-02T06:57:04.677Z,10.41
2017-01-02T06:58:15.562Z,10.4
2017-01-02T06:59:26.468Z,10.4
2017-01-02T07:00:37.361Z,10.34
2017-01-02T07:01:48.677Z,10.4
2017-01-02T07:02:59.619Z,10.4
2017-01-02T07:04:10.940Z,10.41
2017-01-02T07:05:22.257Z,10.47
2017-01-02T07:06:33.158Z,10.34
2017-01-02T07:07:44.488Z,10.45
2017-01-02T07:08:55.437Z,10.36
2017-01-02T07:10:06.336Z,10.45
2017-01-02T07:11:17.655Z,10.36
2017-01-02T07:12:28.977Z,10.36
2017-01-02T07:13:39.870Z,10.45
2017-01-02T07:14:50.819Z,10.38
2017-01-02T07:16:01.716Z,10.6
2017-01-02T07:17:12.174Z,10.47
2017-01-02T07:18:23.495Z,10.42
2017-01-02T07:19:34.808Z,10.4
2017-01-02T07:20:45.749Z,10.47
2017-01-02T07:21:57.066Z,10.44
2017-01-02T07:23:07.987Z,10.44
2017-01-02T07:24:19.306Z,10.42
2017-01-02T07:25:30.194Z,10.45
2017-01-02T07:26:41.559Z,10.4
2017-01-02T07:27:52.448Z,10.36
2017-01-02T07:29:03.341Z,10.44
2017-01-02T07:30:14.235Z,10.41
2017-01-02T07:31:25.552Z,10.41
2017-01-02T07:32:37.125Z,10.48
2017-01-02T07:33:48.442Z,10.4
2017-01-02T07:34:59.760Z,10.42
2017-01-02T07:36:10.229Z,10.47
2017-01-02T07:37:21.114Z,10.51
2017-01-02T07:38:32.483Z,10.42
2017-01-02T07:39:42.944Z,10.4
2017-01-02T07:40:53.846Z,10.48
2017-01-02T07:42:05.167Z,10.41
2017-01-02T07:43:16.056Z,10.41
2017-01-02T07:44:27.417Z,10.45
2017-01-02T07:45:38.307Z,10.47
2017-01-02T07:46:49.624Z,10.51
2017-01-02T07:48:00.517Z,10.36
2017-01-02T07:49:11.402Z,10.36
2017-01-02T07:50:22.779Z,10.42
2017-01-02T07:51:33.665Z,10.45
2017-01-02T07:52:45.021Z,10.51
2017-01-02T07:53:55.915Z,10.42
2017-01-02T07:55:06.836Z,10.52
2017-01-02T07:56:17.353Z,10.36
2017-01-02T07:57:28.675Z,10.52
2017-01-02T07:58:40.000Z,10.48
2017-01-02T07:59:51.321Z,10.56
2017-01-02T08:01:02.214Z,10.42
2017-01-02T08:02:13.159Z,10.48
2017-01-02T08:03:24.472Z,10.52
2017-01-02T08:04:34.954Z,10.52
2017-01-02T08:05:46.276Z,10.45
2017-01-02T08:06:57.596Z,10.4
2017-01-02T08:08:08.961Z,10.6
2017-01-02T08:09:19.851Z,10.47
2017-01-02T08:10:30.748Z,10.45
2017-01-02T08:11:42.061Z,10.55
2017-01-02T08:12:52.954Z,10.53
2017-01-02T08:14:04.324Z,10.61
2017-01-02T08:15:15.669Z,10.47
2017-01-02T08:16:26.986Z,10.52
2017-01-02T08:17:37.883Z,10.56
2017-01-02T08:18:49.196Z,10.6
2017-01-02T08:20:00.561Z,10.52
2017-01-02T08:21:11.451Z,10.53
2017-01-02T08:22:22.784Z,10.48
2017-01-02T08:23:33.673Z,10.53
2017-01-02T08:24:44.998Z,10.53
2017-01-02T08:25:56.376Z,10.6
2017-01-02T08:27:06.841Z,10.52
2017-01-02T08:28:18.162Z,10.55
2017-01-02T08:29:28.623Z,10.66
2017-01-02T08:30:39.945Z,10.6
2017-01-02T08:31:51.317Z,10.55
2017-01-02T08:33:01.795Z,10.6
2017-01-02T08:34:13.112Z,10.67
2017-01-02T08:35:24.433Z,10.66
2017-01-02T08:36:35.339Z,10.59
2017-01-02T08:37:46.747Z,10.6
2017-01-02T08:38:58.064Z,10.7
2017-01-02T08:40:09.402Z,10.71
2017-01-02T08:41:20.727Z,10.71
2017-01-02T08:42:31.624Z,10.71
2017-01-02T08:43:43.146Z,10.68
2017-01-02T08:44:54.467Z,10.66
2017-01-02T08:46:05.784Z,10.64
2017-01-02T08:47:17.105Z,10.7
2017-01-02T08:48:27.999Z,10.71
2017-01-02T08:49:39.364Z,10.82
2017-01-02T08:50:50.689Z,10.74
2017-01-02T08:52:02.038Z,10.73
2017-01-02T08:53:13.356Z,10.73
2017-01-02T08:54:24.245Z,10.73
2017-01-02T08:55:35.609Z,10.78
2017-01-02T08:56:46.079Z,10.7
2017-01-02T08:57:57.420Z,10.81
2017-01-02T08:59:08.737Z,10.7
2017-01-02T09:00:19.626Z,10.74
2017-01-02T09:01:30.135Z,10.71
2017-01-02T09:02:41.025Z,10.85
2017-01-02T09:03:51.918Z,10.84
2017-01-02T09:05:03.235Z,10.85
2017-01-02T09:06:14.556Z,10.81
2017-01-02T09:07:25.494Z,10.74
2017-01-02T09:08:36.811Z,10.81
2017-01-02T09:09:48.140Z,10.7
2017-01-02T09:10:59.041Z,10.82
2017-01-02T09:12:10.363Z,10.78
2017-01-02T09:13:21.732Z,10.79
2017-01-02T09:14:32.201Z,10.78
2017-01-02T09:15:43.526Z,10.82
2017-01-02T09:16:54.848Z,10.71
2017-01-02T09:18:05.741Z,10.71
2017-01-02T09:19:17.102Z,10.73
2017-01-02T09:20:27.991Z,10.76
2017-01-02T09:21:39.312Z,10.81
2017-01-02T09:22:50.213Z,10.73
2017-01-02T09:24:01.119Z,10.67
2017-01-02T09:25:12.068Z,10.73
2017-01-02T09:26:22.961Z,10.73
2017-01-02T09:27:33.859Z,10.78
2017-01-02T09:28:45.188Z,10.73
2017-01-02T09:29:56.513Z,10.76
2017-01-02T09:31:07.454Z,10.66
2017-01-02T09:32:17.915Z,10.64
2017-01-02T09:33:29.252Z,10.76
2017-01-02T09:34:40.145Z,10.6
2017-01-02T09:35:51.463Z,10.64
2017-01-02T09:37:02.400Z,10.74
2017-01-02T09:38:13.725Z,10.67
2017-01-02T09:39:24.618Z,10.71
2017-01-02T09:40:35.512Z,10.66
2017-01-02T09:41:46.829Z,10.73
2017-01-02T09:42:57.774Z,10.67
2017-01-02T09:44:08.659Z,10.79
2017-01-02T09:45:19.972Z,10.68
2017-01-02T09:46:31.314Z,10.68
2017-01-02T09:47:42.631Z,10.71
2017-01-02T09:48:53.140Z,10.76
2017-01-02T09:50:04.461Z,10.67
2017-01-02T09:51:15.779Z,10.73
2017-01-02T09:52:26.671Z,10.74
2017-01-02T09:53:37.985Z,10.66
2017-01-02T09:54:48.950Z,10.73
2017-01-02T09:56:00.279Z,10.71
2017-01-02T09:57:11.164Z,10.74
2017-01-02T09:58:22.490Z,10.66
2017-01-02T09:59:33.387Z,10.71
2017-01-02T10:00:44.760Z,10.74
2017-01-02T10:01:56.078Z,10.76
2017-01-02T10:03:07.403Z,10.76
2017-01-02T10:04:18.756Z,10.66
2017-01-02T10:05:30.077Z,10.79
2017-01-02T10:06:41.014Z,10.78
2017-01-02T10:07:51.912Z,10.71
2017-01-02T10:09:03.233Z,10.76
2017-01-02T10:10:14.122Z,10.78
2017-01-02T10:11:25.440Z,10.79
2017-01-02T10:12:36.812Z,10.76
2017-01-02T10:13:48.134Z,10.84
2017-01-02T10:14:59.031Z,10.78
2017-01-02T10:16:09.920Z,10.71
2017-01-02T10:17:20.813Z,10.74
2017-01-02T10:18:31.907Z,10.76
2017-01-02T10:19:43.231Z,10.85
2017-01-02T10:20:54.549Z,10.74
2017-01-02T10:22:05.870Z,10.82
2017-01-02T10:23:17.187Z,10.79
2017-01-02T10:24:28.124Z,10.76
2017-01-02T10:25:39.018Z,10.85
2017-01-02T10:26:49.903Z,10.76
2017-01-02T10:28:01.224Z,10.85
2017-01-02T10:29:12.545Z,10.85
2017-01-02T10:30:23.486Z,10.78
2017-01-02T10:31:34.800Z,10.85
2017-01-02T10:32:46.125Z,10.85
2017-01-02T10:33:57.022Z,10.91
2017-01-02T10:35:07.915Z,10.84
2017-01-02T10:36:18.860Z,10.85
2017-01-02T10:37:30.178Z,10.82
2017-01-02T10:38:41.491Z,10.89
2017-01-02T10:39:52.380Z,10.85
2017-01-02T10:41:03.701Z,10.84
2017-01-02T10:42:14.650Z,10.81
2017-01-02T10:43:25.967Z,10.82
2017-01-02T10:44:36.865Z,10.79
2017-01-02T10:45:47.326Z,10.81
2017-01-02T10:46:58.220Z,10.88
2017-01-02T10:48:09.593Z,10.85
2017-01-02T10:49:20.906Z,10.92
2017-01-02T10:50:31.367Z,10.92
2017-01-02T10:51:42.689Z,10.85
2017-01-02T10:52:53.181Z,10.85
2017-01-02T10:54:04.707Z,10.91
2017-01-02T10:55:16.032Z,11.02
2017-01-02T10:56:26.916Z,10.89
2017-01-02T10:57:38.242Z,10.92
2017-01-02T10:58:49.158Z,10.94
2017-01-02T11:00:00.213Z,11.02
2017-01-02T11:01:11.110Z,11.04
2017-01-02T11:02:22.423Z,11.06
2017-01-02T11:03:33.352Z,11
2017-01-02T11:04:44.666Z,10.96
2017-01-02T11:05:56.035Z,11.03
2017-01-02T11:07:07.361Z,11.09
2017-01-02T11:08:18.685Z,11.11
2017-01-02T11:09:30.006Z,11.1
2017-01-02T11:10:41.320Z,11.14
2017-01-02T11:11:52.264Z,11.14
2017-01-02T11:13:03.154Z,11.14
2017-01-02T11:14:14.483Z,11.21
2017-01-02T11:15:25.796Z,11.15
2017-01-02T11:16:36.249Z,11.19
2017-01-02T11:17:47.198Z,11.17
2017-01-02T11:18:58.512Z,11.22
2017-01-02T11:20:09.849Z,11.24
2017-01-02T11:21:20.742Z,11.32
2017-01-02T11:22:31.635Z,11.19
2017-01-02T11:23:43.009Z,11.27
2017-01-02T11:24:53.910Z,11.29
2017-01-02T11:26:05.231Z,11.35
2017-01-02T11:27:16.548Z,11.36
2017-01-02T11:28:27.870Z,11.39
2017-01-02T11:29:39.247Z,11.29
2017-01-02T11:30:50.140Z,11.44
2017-01-02T11:32:01.461Z,11.37
2017-01-02T11:33:12.347Z,11.39
2017-01-02T11:34:23.248Z,11.43
2017-01-02T11:35:34.612Z,11.42
2017-01-02T11:36:45.510Z,11.4
2017-01-02T11:37:56.831Z,11.36
2017-01-02T11:39:08.152Z,11.29
2017-01-02T11:40:19.045Z,11.36
2017-01-02T11:41:30.418Z,11.28
2017-01-02T11:42:41.308Z,11.43
2017-01-02T11:43:52.628Z,11.33
2017-01-02T11:45:03.526Z,11.35
2017-01-02T11:46:14.847Z,11.35
2017-01-02T11:47:25.796Z,11.42
2017-01-02T11:48:37.113Z,11.35
2017-01-02T11:49:48.007Z,11.39
2017-01-02T11:50:59.328Z,11.36
2017-01-02T11:52:10.645Z,11.36
2017-01-02T11:53:21.594Z,11.4
2017-01-02T11:54:32.907Z,11.36
2017-01-02T11:55:44.225Z,11.47
2017-01-02T11:56:55.114Z,11.4
2017-01-02T11:58:06.431Z,11.39
2017-01-02T11:59:17.908Z,11.46
2017-01-02T12:00:29.232Z,11.44
2017-01-02T12:01:40.124Z,11.33
2017-01-02T12:02:51.484Z,11.44
2017-01-02T12:04:02.797Z,11.47
2017-01-02T12:05:13.742Z,11.47
2017-01-02T12:06:25.064Z,11.47
2017-01-02T12:07:36.385Z,11.44
2017-01-02T12:08:47.714Z,11.47
2017-01-02T12:09:58.608Z,11.46
2017-01-02T12:11:09.980Z,11.51
2017-01-02T12:12:21.301Z,11.46
2017-01-02T12:13:32.623Z,11.49
2017-01-02T12:14:43.940Z,11.42
2017-01-02T12:15:54.837Z,11.44
2017-01-02T12:17:05.782Z,11.47
2017-01-02T12:18:17.099Z,11.42
2017-01-02T12:19:27.989Z,11.64
2017-01-02T12:20:39.342Z,11.49
2017-01-02T12:21:50.667Z,11.52
2017-01-02T12:23:02.044Z,11.55
2017-01-02T12:24:13.365Z,11.57
2017-01-02T12:25:24.254Z,11.58
2017-01-02T12:26:35.576Z,11.6
2017-01-02T12:27:46.889Z,11.61
2017-01-02T12:28:58.258Z,11.62
2017-01-02T12:30:09.151Z,11.62
2017-01-02T12:31:20.048Z,11.67
2017-01-02T12:32:31.361Z,11.67
2017-01-02T12:33:42.259Z,11.57
2017-01-02T12:34:53.636Z,11.67
2017-01-02T12:36:04.529Z,11.67
2017-01-02T12:37:15.846Z,11.72
2017-01-02T12:38:27.167Z,11.62
2017-01-02T12:39:38.061Z,11.73
2017-01-02T12:40:49.440Z,11.79
2017-01-02T12:41:59.931Z,11.67
2017-01-02T12:43:11.248Z,11.69
2017-01-02T12:44:22.141Z,11.65
2017-01-02T12:45:33.039Z,11.78
2017-01-02T12:46:44.412Z,11.8
2017-01-02T12:47:54.877Z,11.8
2017-01-02T12:49:06.194Z,11.78
2017-01-02T12:50:17.091Z,11.8
2017-01-02T12:51:28.001Z,11.8
2017-01-02T12:52:39.378Z,11.73
2017-01-02T12:53:50.706Z,11.82
2017-01-02T12:55:01.608Z,11.75
2017-01-02T12:56:12.501Z,11.85
2017-01-02T12:57:23.394Z,11.9
2017-01-02T12:58:34.348Z,11.82
2017-01-02T12:59:45.672Z,11.79
2017-01-02T13:00:56.994Z,11.82
2017-01-02T13:02:07.887Z,11.86
2017-01-02T13:03:19.208Z,11.86
2017-01-02T13:04:29.729Z,11.82
2017-01-02T13:05:40.622Z,11.82
2017-01-02T13:06:51.511Z,11.85
2017-01-02T13:08:02.833Z,11.9
2017-01-02T13:09:13.710Z,11.95
2017-01-02T13:10:24.651Z,11.96
2017-01-02T13:11:35.552Z,11.98
2017-01-02T13:12:46.897Z,11.9
2017-01-02T13:13:58.255Z,11.86
2017-01-02T13:15:09.148Z,11.9
2017-01-02T13:16:20.097Z,11.85
2017-01-02T13:17:30.990Z,11.86
2017-01-02T13:18:42.311Z,11.83
2017-01-02T13:19:53.205Z,11.85
2017-01-02T13:21:04.526Z,11.85
2017-01-02T13:22:15.471Z,11.9
2017-01-02T13:23:26.360Z,11.8
2017-01-02T13:24:37.681Z,11.86
2017-01-02T13:25:48.574Z,11.78
2017-01-02T13:26:59.901Z,11.78
2017-01-02T13:28:11.297Z,11.82
2017-01-02T13:29:21.762Z,11.76
2017-01-02T13:30:32.667Z,11.8
2017-01-02T13:31:43.980Z,11.86
2017-01-02T13:32:54.870Z,11.72
2017-01-02T13:34:06.255Z,11.73
2017-01-02T13:35:17.572Z,11.8
2017-01-02T13:36:28.897Z,11.76
2017-01-02T13:37:40.214Z,11.75
2017-01-02T13:38:51.535Z,11.8
2017-01-02T13:40:03.001Z,11.76
2017-01-02T13:41:14.318Z,11.76
2017-01-02T13:42:25.211Z,11.79
2017-01-02T13:43:36.108Z,11.67
2017-01-02T13:44:47.429Z,11.69
2017-01-02T13:45:58.370Z,11.76
2017-01-02T13:47:09.699Z,11.65
2017-01-02T13:48:20.592Z,11.7
2017-01-02T13:49:31.489Z,11.78
2017-01-02T13:50:42.807Z,11.65
2017-01-02T13:51:54.180Z,11.69
2017-01-02T13:53:05.077Z,11.7
2017-01-02T13:54:16.398Z,11.61
2017-01-02T13:55:27.291Z,11.72
2017-01-02T13:56:38.193Z,11.72
2017-01-02T13:57:49.562Z,11.76
2017-01-02T13:59:00.450Z,11.73
2017-01-02T14:00:11.360Z,11.62
2017-01-02T14:01:22.261Z,11.72
2017-01-02T14:02:33.154Z,11.75
2017-01-02T14:03:44.115Z,11.65
2017-01-02T14:04:55.468Z,11.64
2017-01-02T14:06:06.369Z,11.69
2017-01-02T14:07:17.263Z,11.67
2017-01-02T14:08:28.592Z,11.61
2017-01-02T14:09:39.965Z,11.69
2017-01-02T14:10:51.278Z,11.61
2017-01-02T14:12:02.600Z,11.67
2017-01-02T14:13:13.495Z,11.57
2017-01-02T14:14:24.817Z,11.7
2017-01-02T14:15:35.759Z,11.65
2017-01-02T14:16:47.084Z,11.55
2017-01-02T14:17:58.401Z,11.6
2017-01-02T14:19:09.326Z,11.58
2017-01-02T14:20:20.216Z,11.61
2017-01-02T14:21:31.589Z,11.58
2017-01-02T14:22:42.902Z,11.44
2017-01-02T14:23:53.798Z,11.55
2017-01-02T14:25:04.712Z,11.62
2017-01-02T14:26:16.028Z,11.61
2017-01-02T14:27:27.398Z,11.55
2017-01-02T14:28:37.436Z,11.47
2017-01-02T14:29:48.761Z,11.52
2017-01-02T14:30:59.654Z,11.55
2017-01-02T14:32:10.543Z,11.57
2017-01-02T14:33:21.916Z,11.57
2017-01-02T14:34:32.809Z,11.58
2017-01-02T14:35:43.702Z,11.49
2017-01-02T14:36:55.022Z,11.52
2017-01-02T14:38:06.345Z,11.36
2017-01-02T14:39:17.290Z,11.43
2017-01-02T14:40:28.607Z,11.49
2017-01-02T14:41:39.940Z,11.49
2017-01-02T14:42:51.289Z,11.47
2017-01-02T14:44:02.602Z,11.47
2017-01-02T14:45:13.968Z,11.4
2017-01-02T14:46:24.857Z,11.42
2017-01-02T14:47:35.754Z,11.44
2017-01-02T14:48:47.079Z,11.43
2017-01-02T14:49:58.400Z,11.33
2017-01-02T14:51:09.769Z,11.4
2017-01-02T14:52:21.087Z,11.36
2017-01-02T14:53:32.016Z,11.28
2017-01-02T14:54:42.909Z,11.25
2017-01-02T14:55:54.222Z,11.28
2017-01-02T14:57:05.695Z,11.28
2017-01-02T14:58:16.585Z,11.21
2017-01-02T14:59:27.482Z,11.27
2017-01-02T15:00:38.375Z,11.22
2017-01-02T15:01:49.280Z,11.22
2017-01-02T15:03:00.645Z,11.24
2017-01-02T15:04:12.002Z,11.27
2017-01-02T15:05:23.320Z,11.22
2017-01-02T15:06:34.221Z,11.19
2017-01-02T15:07:45.546Z,11.14
2017-01-02T15:08:56.943Z,11.15
2017-01-02T15:10:08.272Z,11.17
2017-01-02T15:11:19.166Z,11.15
2017-01-02T15:12:30.068Z,11.1
2017-01-02T15:13:41.412Z,11.11
2017-01-02T15:14:52.361Z,11.07
2017-01-02T15:16:03.678Z,11.11
2017-01-02T15:17:14.568Z,11.15
2017-01-02T15:18:25.881Z,11.14
2017-01-02T15:19:36.778Z,11